Time;durP1;ratioP1;P1;durP2;ratioP2;P2;SDS_P1;SDS_P2;PMS_P1;PMS_P2;Temp;Humidity;BMP_temperature;BMP_pressure;BME280_temperature;BME280_humidity;BME280_pressure;Samples;Min_cycle;Max_cycle;Signal;HPM_P1;HPM_P2
2022/06/12 00:01:57;;;;;;;5.45;3.17;;;;;;;13.81;100.00;97270.84;4992926;28;20046;-65
2022/06/12 00:04:24;;;;;;;6.18;2.58;;;;;;;13.93;100.00;97271.41;4985437;28;20078;-65
2022/06/12 00:06:50;;;;;;;5.38;2.75;;;;;;;14.02;100.00;97279.38;5000512;28;20057;-65
2022/06/12 00:09:16;;;;;;;4.60;2.58;;;;;;;14.02;100.00;97271.13;4985226;28;20038;-66
2022/06/12 00:11:44;;;;;;;6.05;2.80;;;;;;;14.02;100.00;97275.84;4979746;28;20115;-66
2022/06/12 00:14:14;;;;;;;4.55;2.95;;;;;;;13.99;100.00;97273.81;4976414;28;20050;-63
2022/06/12 00:16:41;;;;;;;4.80;3.22;;;;;;;13.87;100.00;97278.41;4980593;28;20080;-66
2022/06/12 00:19:08;;;;;;;5.30;3.20;;;;;;;13.83;100.00;97274.00;4976171;28;20042;-65
2022/06/12 00:21:35;;;;;;;4.53;2.72;;;;;;;13.65;100.00;97269.09;4981314;28;20050;-66
2022/06/12 00:24:06;;;;;;;6.35;3.08;;;;;;;13.34;100.00;97272.97;4981239;28;20045;-66
2022/06/12 00:26:34;;;;;;;4.47;2.90;;;;;;;13.35;100.00;97271.81;4978960;28;20046;-65
2022/06/12 00:29:11;;;;;;;4.18;2.80;;;;;;;13.47;100.00;97266.09;4980456;28;20052;-65
2022/06/12 00:31:40;;;;;;;6.07;3.63;;;;;;;13.56;100.00;97266.63;4980345;28;20047;-66
2022/06/12 00:34:06;;;;;;;8.77;3.05;;;;;;;13.39;100.00;97261.66;4976288;28;20057;-67
2022/06/12 00:36:32;;;;;;;5.25;2.85;;;;;;;13.45;100.00;97265.69;4980485;28;20047;-66
2022/06/12 00:38:58;;;;;;;6.03;3.15;;;;;;;13.36;100.00;97262.38;4981282;28;20433;-66
2022/06/12 00:41:24;;;;;;;4.32;2.97;;;;;;;13.41;100.00;97266.78;4976822;28;20081;-67
2022/06/12 00:43:52;;;;;;;9.15;3.08;;;;;;;13.35;100.00;97256.09;4979746;28;20073;-66
2022/06/12 00:46:39;;;;;;;6.15;3.13;;;;;;;12.93;100.00;97261.72;4974211;28;20399;-66
2022/06/12 00:49:13;;;;;;;9.57;3.63;;;;;;;12.73;100.00;97258.22;4978446;28;20400;-64
2022/06/12 00:51:39;;;;;;;4.85;3.33;;;;;;;12.62;100.00;97250.63;4988978;28;20381;-66
2022/06/12 00:54:08;;;;;;;9.30;3.13;;;;;;;12.67;100.00;97248.72;4993998;28;20486;-66
2022/06/12 00:56:39;;;;;;;3.90;2.55;;;;;;;12.57;100.00;97256.41;4997866;28;20475;-66
2022/06/12 00:59:12;;;;;;;5.82;3.03;;;;;;;12.55;100.00;97256.00;4993256;28;20049;-63
2022/06/12 01:01:50;;;;;;;4.53;2.55;;;;;;;12.48;100.00;97260.53;5000384;28;20052;-66
2022/06/12 01:07:06;;;;;;;5.75;2.65;;;;;;;12.46;100.00;97260.13;4983610;28;20883;-66
2022/06/12 01:09:36;;;;;;;4.32;3.20;;;;;;;12.52;100.00;97262.22;4987393;28;20875;-66
2022/06/12 01:12:03;;;;;;;;;;;;;;;12.70;100.00;97261.72;4999404;28;20136;-63
2022/06/12 01:14:37;;;;;;;3.50;2.60;;;;;;;12.87;100.00;97266.72;4998954;28;19913;-66
2022/06/12 01:17:04;;;;;;;6.57;3.50;;;;;;;12.93;100.00;97262.50;4997426;28;20048;-62
2022/06/12 01:19:41;;;;;;;5.68;2.63;;;;;;;12.97;100.00;97270.81;5000128;28;20570;-66
2022/06/12 01:22:40;;;;;;;5.00;2.67;;;;;;;13.03;100.00;97261.06;4994801;28;20038;-65
2022/06/12 01:25:24;;;;;;;4.25;2.50;;;;;;;12.98;100.00;97255.88;4993783;28;20042;-66
2022/06/12 01:28:09;;;;;;;3.70;2.67;;;;;;;12.99;100.00;97263.78;4978462;28;20134;-66
2022/06/12 01:30:44;;;;;;;5.63;2.70;;;;;;;13.01;100.00;97261.44;4979655;28;20496;-66
2022/06/12 01:33:48;;;;;;;3.30;2.50;;;;;;;13.09;100.00;97253.31;4975467;28;20129;-64
2022/06/12 01:36:19;;;;;;;4.00;2.85;;;;;;;12.94;100.00;97253.09;4955487;28;20042;-64
2022/06/12 01:39:02;;;;;;;8.27;3.28;;;;;;;13.01;100.00;97247.69;4960616;28;20122;-65
2022/06/12 01:41:46;;;;;;;6.13;2.75;;;;;;;13.00;100.00;97253.59;4956869;28;20114;-65
2022/06/12 01:44:42;;;;;;;8.57;3.05;;;;;;;12.95;100.00;97246.44;4959927;28;20050;-66
2022/06/12 01:47:16;;;;;;;9.07;3.17;;;;;;;12.93;100.00;97247.97;4969966;28;20046;-66
2022/06/12 01:49:45;;;;;;;5.15;3.03;;;;;;;12.85;100.00;97247.03;4983059;28;20052;-65
2022/06/12 01:52:35;;;;;;;5.50;3.03;;;;;;;12.76;100.00;97249.25;4989217;28;20492;-64
2022/06/12 01:55:32;;;;;;;4.72;3.20;;;;;;;12.54;100.00;97242.63;5004066;28;20499;-66
2022/06/12 01:58:06;;;;;;;5.78;2.58;;;;;;;12.60;100.00;97238.38;5002307;28;20052;-65
2022/06/12 02:00:33;;;;;;;4.25;2.80;;;;;;;12.63;100.00;97240.41;5003049;28;20048;-65
2022/06/12 02:03:07;;;;;;;5.78;3.20;;;;;;;12.70;100.00;97240.53;5003937;28;20038;-66
2022/06/12 02:05:57;;;;;;;8.02;3.13;;;;;;;12.65;100.00;97245.53;5001765;28;20046;-66
2022/06/12 02:08:30;;;;;;;5.20;3.03;;;;;;;12.58;100.00;97244.25;4996618;28;20706;-67
2022/06/12 02:14:25;;;;;;;4.43;3.08;;;;;;;12.67;100.00;97244.00;4898245;29;20051;-65
2022/06/12 02:16:55;;;;;;;7.30;2.92;;;;;;;12.62;100.00;97250.63;4965140;28;20555;-65
2022/06/12 02:19:27;;;;;;;6.90;3.22;;;;;;;12.63;100.00;97243.94;4958840;28;20097;-65
2022/06/12 02:22:07;;;;;;;4.80;2.78;;;;;;;12.58;100.00;97235.22;4980282;28;20049;-67
2022/06/12 02:24:39;;;;;;;3.90;2.60;;;;;;;12.56;100.00;97232.84;4983134;28;20042;-63
2022/06/12 02:27:18;;;;;;;7.45;2.75;;;;;;;12.56;100.00;97240.28;4977187;28;20124;-64
2022/06/12 02:29:56;;;;;;;5.50;2.90;;;;;;;12.39;100.00;97236.09;4981577;28;20105;-65
2022/06/12 02:32:22;;;;;;;11.05;3.25;;;;;;;12.38;100.00;97238.00;4977703;28;20064;-64
2022/06/12 02:34:52;;;;;;;7.28;2.92;;;;;;;12.41;100.00;97239.25;4983594;28;20483;-65
2022/06/12 02:37:24;;;;;;;8.05;2.90;;;;;;;12.31;100.00;97240.63;4977673;28;20400;-65
2022/06/12 02:39:56;;;;;;;5.90;3.10;;;;;;;12.34;100.00;97239.91;4982957;28;20049;-64
2022/06/12 02:42:42;;;;;;;5.63;3.08;;;;;;;12.40;100.00;97232.94;4975262;28;20115;-65
2022/06/12 02:45:14;;;;;;;4.72;2.88;;;;;;;12.31;100.00;97235.13;4977818;28;20138;-64
2022/06/12 02:47:41;;;;;;;10.02;3.40;;;;;;;12.13;100.00;97234.81;4980600;28;20047;-65
2022/06/12 02:50:10;;;;;;;4.68;2.88;;;;;;;12.21;100.00;97231.06;4979108;28;20046;-62
2022/06/12 02:52:54;;;;;;;5.78;3.85;;;;;;;12.28;100.00;97235.06;4984976;28;20100;-63
2022/06/12 02:55:44;;;;;;;7.07;3.25;;;;;;;12.27;100.00;97239.00;4963231;28;20041;-64
2022/06/12 02:58:13;;;;;;;;;;;;;;;12.21;100.00;97236.53;4982181;28;20350;-65
2022/06/12 03:00:53;;;;;;;4.63;2.97;;;;;;;12.19;100.00;97230.63;4995868;28;19918;-64
2022/06/12 03:03:35;;;;;;;5.05;2.72;;;;;;;12.22;100.00;97237.34;4978610;28;20046;-63
2022/06/12 03:06:01;;;;;;;8.57;2.83;;;;;;;12.28;100.00;97240.56;4982497;28;20038;-66
2022/06/12 03:08:32;;;;;;;4.60;2.60;;;;;;;12.30;100.00;97236.31;4979208;28;20046;-67
2022/06/12 03:11:08;;;;;;;5.57;2.80;;;;;;;12.32;100.00;97238.69;4983184;28;20153;-67
2022/06/12 03:13:35;;;;;;;5.05;2.83;;;;;;;12.32;100.00;97239.50;4982852;28;20395;-66
2022/06/12 03:16:01;;;;;;;4.53;2.80;;;;;;;12.39;100.00;97244.31;4982359;28;20060;-66
2022/06/12 03:18:33;;;;;;;5.68;2.67;;;;;;;12.42;100.00;97246.31;4979580;28;20050;-65
2022/06/12 03:21:17;;;;;;;4.60;3.00;;;;;;;12.47;100.00;97245.25;4994421;28;20041;-66
2022/06/12 03:24:00;;;;;;;9.55;2.80;;;;;;;12.40;100.00;97240.41;5000536;28;20050;-65
2022/06/12 03:26:28;;;;;;;8.63;2.80;;;;;;;12.46;100.00;97249.94;4976839;28;20050;-64
2022/06/12 03:29:26;;;;;;;4.95;2.90;;;;;;;12.44;100.00;97252.25;4982436;28;20046;-63
2022/06/12 03:32:02;;;;;;;3.60;2.80;;;;;;;12.55;100.00;97239.50;4960547;28;20049;-66
2022/06/12 03:34:48;;;;;;;5.47;3.00;;;;;;;12.59;100.00;97250.56;4976258;28;20046;-68
2022/06/12 03:37:37;;;;;;;7.93;2.72;;;;;;;12.50;100.00;97256.28;4976683;28;20042;-64
2022/06/12 03:40:07;;;;;;;5.22;2.88;;;;;;;12.47;100.00;97250.72;4976591;28;20145;-64
2022/06/12 03:43:00;;;;;;;3.78;2.67;;;;;;;12.48;100.00;97252.31;4978538;28;20499;-66
2022/06/12 03:45:48;;;;;;;7.72;2.97;;;;;;;12.53;100.00;97252.81;4957041;28;20066;-65
2022/06/12 03:48:39;;;;;;;6.05;2.65;;;;;;;12.54;100.00;97248.13;4973031;28;20089;-65
2022/06/12 03:51:23;;;;;;;6.60;2.88;;;;;;;12.66;100.00;97247.94;4983307;28;20073;-66
2022/06/12 03:54:10;;;;;;;9.82;3.00;;;;;;;12.71;100.00;97247.63;4990311;28;20038;-66
2022/06/12 03:59:32;;;;;;;6.78;3.05;;;;;;;12.84;100.00;97259.22;4977310;28;20046;-64
2022/06/12 04:02:01;;;;;;;7.43;2.90;;;;;;;12.91;100.00;97259.34;4980494;28;20146;-65
2022/06/12 04:04:30;;;;;;;5.30;3.28;;;;;;;13.00;100.00;97257.13;4979061;28;20042;-66
2022/06/12 04:06:57;;;;;;;4.78;2.78;;;;;;;13.11;100.00;97249.03;4980204;28;20129;-66
2022/06/12 04:09:28;;;;;;;4.88;2.65;;;;;;;13.28;100.00;97249.66;4976742;28;20471;-66
2022/06/12 04:11:59;;;;;;;5.00;2.70;;;;;;;13.43;100.00;97245.97;4997404;28;20514;-66
2022/06/12 04:14:31;;;;;;;6.57;2.60;;;;;;;13.57;100.00;97246.16;4968666;28;20054;-66
2022/06/12 04:16:59;;;;;;;5.05;2.42;;;;;;;13.75;100.00;97248.38;4978876;28;20078;-64
2022/06/12 04:19:27;;;;;;;3.33;2.70;;;;;;;13.83;100.00;97243.72;4976388;28;20154;-67
2022/06/12 04:21:52;;;;;;;3.70;2.45;;;;;;;13.93;100.00;97243.84;4998028;28;20042;-64
2022/06/12 04:24:42;;;;;;;8.60;2.47;;;;;;;14.04;100.00;97241.22;4996409;28;20041;-66
2022/06/12 04:27:07;;;;;;;;;;;;;;;14.17;100.00;97243.72;4975189;28;20077;-65
2022/06/12 04:29:38;;;;;;;7.03;2.55;;;;;;;14.36;100.00;97240.78;4995256;28;19913;-65
2022/06/12 04:32:06;;;;;;;3.63;2.30;;;;;;;14.61;100.00;97243.03;4990143;28;20042;-62
2022/06/12 04:34:38;;;;;;;4.22;2.70;;;;;;;14.84;100.00;97240.09;4993821;28;20049;-64
2022/06/12 04:37:31;;;;;;;6.72;2.60;;;;;;;15.12;100.00;97244.22;4980429;28;20385;-61
2022/06/12 04:39:58;;;;;;;3.42;2.17;;;;;;;15.52;100.00;97239.75;4982854;28;20495;-64
2022/06/12 04:42:26;;;;;;;4.57;2.88;;;;;;;15.96;100.00;97245.09;4978230;28;20221;-64
2022/06/12 04:44:52;;;;;;;3.33;2.25;;;;;;;16.17;100.00;97238.88;4987763;28;20046;-63
2022/06/12 04:47:22;;;;;;;3.03;2.28;;;;;;;16.60;99.92;97232.63;4977358;28;20038;-65
2022/06/12 04:49:49;;;;;;;3.60;2.47;;;;;;;18.33;90.35;97235.88;4981626;28;20046;-65
2022/06/12 04:52:16;;;;;;;5.20;2.20;;;;;;;20.39;78.73;97227.13;4986989;28;20038;-66
2022/06/12 04:54:43;;;;;;;2.95;1.90;;;;;;;22.28;66.96;97238.97;5000900;28;20052;-67
2022/06/12 04:57:10;;;;;;;7.63;1.88;;;;;;;23.35;61.79;97243.25;4995522;28;20046;-63
2022/06/12 04:59:37;;;;;;;3.53;2.38;;;;;;;24.75;53.32;97241.34;4998407;28;20302;-65
2022/06/12 05:02:02;;;;;;;5.35;1.33;;;;;;;26.11;49.01;97238.75;4980920;28;20504;-61
2022/06/12 05:04:28;;;;;;;2.60;1.50;;;;;;;26.29;46.95;97250.09;4979157;28;20050;-64
2022/06/12 05:06:55;;;;;;;6.43;1.67;;;;;;;27.50;44.56;97253.38;4980849;28;20042;-65
2022/06/12 05:09:24;;;;;;;4.85;1.35;;;;;;;28.30;42.67;97251.47;4968500;28;20047;-64
2022/06/12 05:11:50;;;;;;;2.80;1.35;;;;;;;28.76;40.36;97251.38;4980811;28;20381;-65
2022/06/12 05:14:16;;;;;;;6.22;1.52;;;;;;;29.27;38.21;97250.50;4974964;28;20042;-65
2022/06/12 05:16:50;;;;;;;3.13;1.17;;;;;;;29.51;37.62;97258.19;4979637;28;20035;-66
2022/06/12 05:19:20;;;;;;;4.07;1.25;;;;;;;29.70;36.93;97253.97;4979563;28;20491;-66
2022/06/12 05:21:46;;;;;;;5.32;1.15;;;;;;;30.77;35.32;97255.16;4977556;28;20487;-64
2022/06/12 05:24:12;;;;;;;2.60;1.30;;;;;;;29.08;38.44;97251.84;4985319;28;20050;-67
2022/06/12 05:26:39;;;;;;;4.38;1.45;;;;;;;31.04;36.18;97256.09;4985067;28;20566;-65
2022/06/12 05:29:08;;;;;;;2.50;1.10;;;;;;;27.41;40.31;97262.59;4979896;28;20125;-62
2022/06/12 05:31:34;;;;;;;2.85;1.30;;;;;;;25.03;48.16;97253.66;4982439;28;20571;-66
2022/06/12 05:33:59;;;;;;;2.50;1.23;;;;;;;24.54;48.18;97253.97;4984955;28;20074;-66
2022/06/12 05:36:25;;;;;;;2.22;1.40;;;;;;;23.80;52.60;97255.69;4976747;28;20049;-66
2022/06/12 05:38:52;;;;;;;3.85;1.70;;;;;;;22.36;56.04;97258.34;4986889;28;20391;-64
2022/06/12 05:41:17;;;;;;;4.53;1.50;;;;;;;22.34;57.08;97250.41;4981971;28;20049;-65
2022/06/12 05:43:43;;;;;;;3.13;1.50;;;;;;;22.09;58.89;97251.72;4984017;28;20399;-65
2022/06/12 05:46:11;;;;;;;4.30;1.67;;;;;;;21.65;59.76;97250.19;4975082;28;20518;-63
2022/06/12 05:48:38;;;;;;;3.17;1.42;;;;;;;22.41;56.68;97253.03;4983638;28;20058;-65
2022/06/12 05:51:04;;;;;;;5.15;1.50;;;;;;;21.60;58.85;97248.66;4987719;28;20049;-61
2022/06/12 05:53:31;;;;;;;4.28;1.40;;;;;;;22.90;56.44;97253.13;4997193;28;20049;-66
2022/06/12 05:55:57;;;;;;;4.22;1.75;;;;;;;22.04;55.80;97251.41;4984591;28;20377;-63
2022/06/12 05:58:25;;;;;;;4.93;1.60;;;;;;;21.46;57.40;97241.34;4978526;28;20064;-66
2022/06/12 06:00:52;;;;;;;1.95;1.42;;;;;;;21.05;59.85;97248.03;4984718;28;20080;-65
2022/06/12 06:03:18;;;;;;;3.35;1.67;;;;;;;20.62;61.99;97246.69;4972577;28;20064;-65
2022/06/12 06:05:46;;;;;;;3.28;1.60;;;;;;;22.07;58.12;97253.34;4982515;28;20038;-65
2022/06/12 06:08:13;;;;;;;4.25;1.40;;;;;;;22.21;56.75;97255.06;4979447;28;20081;-64
2022/06/12 06:10:39;;;;;;;8.68;5.00;;;;;;;20.61;62.23;97247.88;4983858;28;20085;-65
2022/06/12 06:13:04;;;;;;;5.15;1.55;;;;;;;21.78;58.50;97253.91;4979550;28;20049;-61
2022/06/12 06:15:30;;;;;;;2.42;1.55;;;;;;;21.13;60.75;97255.03;4988478;28;20392;-64
2022/06/12 06:17:56;;;;;;;3.35;1.50;;;;;;;23.16;53.75;97256.13;4991493;28;20124;-64
2022/06/12 06:20:26;;;;;;;2.35;1.40;;;;;;;22.94;53.57;97252.25;4983505;28;20538;-63
2022/06/12 06:22:52;;;;;;;2.25;1.58;;;;;;;23.71;50.52;97258.31;5003698;28;20056;-66
2022/06/12 06:25:19;;;;;;;3.58;1.73;;;;;;;25.30;46.82;97255.19;4997848;28;20046;-61
2022/06/12 06:27:45;;;;;;;4.32;1.50;;;;;;;23.67;52.31;97261.19;4997419;28;20049;-65
2022/06/12 06:30:11;;;;;;;3.08;1.60;;;;;;;23.25;52.73;97261.09;4975738;28;20042;-66
2022/06/12 06:32:37;;;;;;;4.78;1.70;;;;;;;23.21;51.62;97263.97;4981190;28;20046;-65
2022/06/12 06:35:04;;;;;;;3.28;1.80;;;;;;;23.23;54.84;97267.13;4981511;28;20093;-61
2022/06/12 06:37:32;;;;;;;4.55;1.65;;;;;;;22.52;55.23;97266.75;4975422;28;20058;-65
2022/06/12 06:39:57;;;;;;;2.88;1.48;;;;;;;23.12;52.16;97268.59;4982905;28;20559;-65
2022/06/12 06:42:23;;;;;;;5.60;1.25;;;;;;;25.59;47.42;97263.41;4976375;28;20065;-67
2022/06/12 06:47:35;;;;;;;3.13;1.40;;;;;;;28.36;40.02;97280.56;4975575;28;20038;-66
2022/06/12 06:50:02;;;;;;;2.42;1.42;;;;;;;25.34;46.42;97267.84;4982748;28;20100;-66
2022/06/12 06:52:27;;;;;;;2.60;1.50;;;;;;;28.01;40.78;97269.66;4985870;28;20137;-66
2022/06/12 06:54:53;;;;;;;3.17;1.40;;;;;;;28.42;40.30;97271.00;4983242;28;20141;-66
2022/06/12 06:57:19;;;;;;;3.60;1.27;;;;;;;29.23;38.47;97272.47;4977706;28;20049;-68
2022/06/12 06:59:44;;;;;;;2.17;1.27;;;;;;;30.05;36.75;97273.19;4983285;28;20034;-65
2022/06/12 07:02:11;;;;;;;3.72;1.60;;;;;;;28.62;39.45;97278.19;4974763;28;20050;-66
2022/06/12 07:04:37;;;;;;;6.43;1.92;;;;;;;25.71;46.89;97265.41;4983395;28;20046;-65
2022/06/12 07:07:03;;;;;;;5.18;1.60;;;;;;;28.05;41.41;97275.91;4979613;28;20134;-63
2022/06/12 07:09:28;;;;;;;7.18;1.52;;;;;;;29.26;39.21;97273.53;4977362;28;20117;-64
2022/06/12 07:11:54;;;;;;;3.65;1.80;;;;;;;27.60;41.62;97281.06;4980492;28;20073;-65
2022/06/12 07:14:19;;;;;;;3.85;1.90;;;;;;;24.61;50.58;97278.97;4977416;28;20038;-64
2022/06/12 07:16:45;;;;;;;2.85;1.80;;;;;;;25.92;48.56;97280.66;4982746;28;20185;-64
2022/06/12 07:19:11;;;;;;;5.07;3.08;;;;;;;25.16;49.57;97284.47;4972595;28;20077;-64
2022/06/12 07:21:37;;;;;;;4.90;1.90;;;;;;;27.65;44.80;97282.47;4984721;28;20081;-64
2022/06/12 07:24:03;;;;;;;6.03;2.00;;;;;;;29.97;38.72;97276.84;4982254;28;20049;-62
2022/06/12 07:26:36;;;;;;;4.20;1.83;;;;;;;28.73;40.21;97280.50;4976771;28;20051;-66
2022/06/12 07:29:02;;;;;;;3.28;1.80;;;;;;;28.76;40.55;97274.69;4979332;28;20097;-61
2022/06/12 07:31:29;;;;;;;2.45;1.50;;;;;;;30.28;38.20;97276.41;4987870;28;20169;-63
2022/06/12 07:33:54;;;;;;;2.30;1.55;;;;;;;30.23;38.01;97272.22;4983221;28;20553;-66
2022/06/12 07:36:20;;;;;;;3.65;1.60;;;;;;;29.62;39.93;97266.09;4977334;28;20050;-64
2022/06/12 07:38:49;;;;;;;3.90;1.77;;;;;;;28.17;42.13;97266.53;4983259;28;20078;-66
2022/06/12 07:41:16;;;;;;;7.78;2.00;;;;;;;27.23;44.68;97269.69;4978703;28;20177;-65
2022/06/12 07:43:43;;;;;;;3.17;1.70;;;;;;;28.95;41.63;97266.94;4982051;28;20452;-65
2022/06/12 07:46:12;;;;;;;4.32;2.20;;;;;;;28.07;42.89;97267.00;4977940;28;20068;-64
2022/06/12 07:48:37;;;;;;;4.70;1.77;;;;;;;26.63;47.02;97273.72;4984474;28;20136;-65
2022/06/12 07:51:07;;;;;;;4.75;1.67;;;;;;;29.45;41.38;97262.94;4989180;28;20141;-61
2022/06/12 07:53:34;;;;;;;4.13;2.08;;;;;;;30.77;38.16;97265.69;4996255;28;20498;-63
2022/06/12 07:56:02;;;;;;;2.90;1.83;;;;;;;28.86;40.91;97266.97;5001906;28;20045;-66
2022/06/12 07:58:28;;;;;;;2.35;1.70;;;;;;;30.25;39.26;97264.03;4985032;28;20053;-65
2022/06/12 08:00:56;;;;;;;3.95;1.90;;;;;;;31.25;36.06;97268.25;4982551;28;20046;-64
2022/06/12 08:03:23;;;;;;;2.67;1.92;;;;;;;31.73;35.06;97276.38;4977703;28;20046;-65
2022/06/12 08:05:49;;;;;;;4.60;1.42;;;;;;;32.17;34.07;97269.69;4980236;28;20042;-65
2022/06/12 08:08:15;;;;;;;2.45;1.70;;;;;;;27.03;44.34;97260.91;4977797;28;20081;-64
2022/06/12 08:10:40;;;;;;;2.63;1.63;;;;;;;27.34;43.78;97260.84;4982767;28;20054;-64
2022/06/12 08:13:08;;;;;;;3.70;1.63;;;;;;;24.23;51.46;97252.44;4976454;28;20050;-63
2022/06/12 08:15:34;;;;;;;6.03;2.17;;;;;;;23.61;54.42;97255.34;4997270;28;20490;-64
2022/06/12 08:18:00;;;;;;;4.20;1.90;;;;;;;23.67;56.42;97250.00;5000245;28;20111;-62
2022/06/12 08:20:31;;;;;;;3.45;2.10;;;;;;;24.25;55.95;97243.59;4981642;28;20327;-64
2022/06/12 08:23:05;;;;;;;4.90;2.00;;;;;;;24.40;54.23;97233.56;4993124;28;20100;-64
2022/06/12 08:25:34;;;;;;;3.40;2.30;;;;;;;24.25;53.83;97235.22;5001225;28;20102;-65
2022/06/12 08:28:00;;;;;;;4.57;1.92;;;;;;;24.19;55.32;97225.81;4984873;28;20173;-65
2022/06/12 08:30:27;;;;;;;3.28;1.70;;;;;;;25.35;49.05;97232.97;4979297;28;20141;-66
2022/06/12 08:32:54;;;;;;;3.13;1.70;;;;;;;26.01;46.85;97229.47;4984948;28;20049;-65
2022/06/12 08:35:25;;;;;;;4.78;2.13;;;;;;;25.53;49.04;97228.75;4977734;28;20116;-65
2022/06/12 08:37:52;;;;;;;3.20;1.50;;;;;;;26.66;45.40;97229.84;4965720;28;20042;-64
2022/06/12 08:40:48;;;;;;;5.57;2.50;;;;;;;27.27;48.09;97228.19;4978269;28;20051;-65
2022/06/12 08:43:23;;;;;;;3.25;2.00;;;;;;;27.71;47.36;97229.16;4977044;28;20046;-65
2022/06/12 08:45:50;;;;;;;3.38;2.17;;;;;;;27.04;49.79;97231.53;4980995;28;20424;-66
2022/06/12 08:48:23;;;;;;;4.38;2.13;;;;;;;27.17;49.88;97234.22;4977211;28;20042;-66
2022/06/12 08:51:15;;;;;;;5.97;2.42;;;;;;;26.94;50.23;97233.56;4981435;28;20448;-64
2022/06/12 08:53:57;;;;;;;3.95;2.22;;;;;;;27.27;49.65;97233.03;4987219;28;20046;-65
2022/06/12 08:56:32;;;;;;;2.97;2.13;;;;;;;27.51;48.99;97227.56;4981886;28;20913;-64
2022/06/12 08:59:21;;;;;;;4.82;2.15;;;;;;;27.74;48.20;97222.59;4987284;28;20042;-65
2022/06/12 09:01:46;;;;;;;4.47;2.05;;;;;;;27.45;49.83;97226.66;4986675;28;20137;-65
2022/06/12 09:04:16;;;;;;;3.45;2.20;;;;;;;27.53;49.45;97229.94;4982317;28;20047;-67
2022/06/12 09:07:10;;;;;;;4.18;2.10;;;;;;;27.34;49.25;97221.47;4983988;28;20133;-65
2022/06/12 09:09:53;;;;;;;4.60;1.85;;;;;;;27.14;49.87;97233.13;4971674;28;20459;-65
2022/06/12 09:12:43;;;;;;;5.05;2.40;;;;;;;27.12;50.18;97229.22;4967277;28;20039;-65
2022/06/12 09:15:28;;;;;;;6.20;2.08;;;;;;;27.39;49.43;97231.34;4984032;28;20042;-63
2022/06/12 09:18:09;;;;;;;9.55;2.53;;;;;;;27.16;49.84;97227.06;4971700;28;20122;-66
2022/06/12 09:21:03;;;;;;;3.30;2.10;;;;;;;27.12;49.44;97215.94;4985355;28;20051;-66
2022/06/12 09:23:49;;;;;;;4.70;2.45;;;;;;;27.14;50.23;97212.69;4973078;28;20085;-64
2022/06/12 09:26:33;;;;;;;2.92;1.90;;;;;;;27.43;49.58;97217.91;4979794;28;20089;-64
2022/06/12 09:29:43;;;;;;;5.05;2.28;;;;;;;27.37;49.30;97212.13;4985859;28;20494;-65
2022/06/12 09:32:37;;;;;;;4.75;2.00;;;;;;;27.30;50.33;97217.25;4897359;29;20114;-62
2022/06/12 09:35:03;;;;;;;4.95;2.20;;;;;;;27.06;50.35;97212.97;4902881;29;20040;-63
2022/06/12 09:38:21;;;;;;;3.47;2.10;;;;;;;27.18;49.28;97208.47;4950530;28;20531;-63
2022/06/12 09:41:08;;;;;;;4.88;2.20;;;;;;;26.05;52.55;97198.47;4983231;28;20138;-64
2022/06/12 09:43:46;;;;;;;4.10;2.38;;;;;;;26.86;49.97;97195.72;4984002;28;20083;-63
2022/06/12 09:46:39;;;;;;;3.50;2.00;;;;;;;26.94;49.87;97193.41;4978880;28;20515;-65
2022/06/12 09:49:22;;;;;;;4.25;2.30;;;;;;;27.41;48.51;97190.22;4979545;28;20082;-62
2022/06/12 09:52:02;;;;;;;3.22;1.70;;;;;;;27.72;47.44;97191.34;4994856;28;20642;-65
2022/06/12 09:54:58;;;;;;;3.28;2.03;;;;;;;28.09;46.67;97192.09;4980101;28;20771;-64
2022/06/12 09:57:49;;;;;;;5.30;2.70;;;;;;;27.79;46.87;97188.97;4978710;28;21004;-65
2022/06/12 10:00:22;;;;;;;3.63;1.90;;;;;;;27.70;47.23;97179.78;4978387;28;20081;-63
2022/06/12 10:02:54;;;;;;;3.35;1.80;;;;;;;28.26;47.18;97172.78;4982835;28;20046;-63
2022/06/12 10:05:28;;;;;;;4.53;2.20;;;;;;;28.46;46.98;97175.06;4978883;28;20785;-63
2022/06/12 10:07:57;;;;;;;6.05;2.53;;;;;;;28.81;44.75;97166.16;4984744;28;20068;-63
2022/06/12 10:10:36;;;;;;;3.10;1.75;;;;;;;28.54;43.61;97170.69;4980564;28;20484;-62
2022/06/12 10:13:07;;;;;;;3.58;2.47;;;;;;;28.45;43.77;97155.81;4985628;28;20077;-63
2022/06/12 10:15:40;;;;;;;3.50;1.58;;;;;;;26.72;47.54;97166.19;4984373;28;20158;-64
2022/06/12 10:18:12;;;;;;;2.75;1.88;;;;;;;26.94;47.86;97160.47;4977672;28;20057;-64
2022/06/12 10:20:45;;;;;;;3.35;2.20;;;;;;;27.20;48.15;97160.19;4984235;28;20130;-65
2022/06/12 10:23:10;;;;;;;3.63;2.60;;;;;;;28.05;46.23;97154.84;4978407;28;20041;-63
2022/06/12 10:25:41;;;;;;;4.13;2.38;;;;;;;28.06;45.74;97156.44;4982166;28;20054;-63
2022/06/12 10:28:15;;;;;;;3.17;2.03;;;;;;;27.89;46.55;97147.50;4979299;28;20045;-64
2022/06/12 10:30:44;;;;;;;4.95;2.50;;;;;;;28.18;44.92;97141.38;4984431;28;20046;-63
2022/06/12 10:33:22;;;;;;;2.57;1.60;;;;;;;28.33;44.62;97143.50;4976438;28;20451;-63
2022/06/12 10:35:54;;;;;;;3.13;1.50;;;;;;;27.97;39.78;97148.78;4982699;28;20042;-63
2022/06/12 10:38:22;;;;;;;3.72;2.10;;;;;;;28.43;39.97;97142.19;4978528;28;20301;-63
2022/06/12 10:40:59;;;;;;;3.78;1.95;;;;;;;28.11;40.68;97140.91;4983853;28;20049;-63
2022/06/12 10:43:44;;;;;;;3.55;2.40;;;;;;;28.30;41.55;97139.59;4978991;28;20042;-63
2022/06/12 10:46:30;;;;;;;3.85;1.48;;;;;;;28.48;41.92;97132.34;4978878;28;20048;-64
2022/06/12 10:48:58;;;;;;;3.50;1.50;;;;;;;28.93;42.65;97127.72;4980688;28;20073;-62
2022/06/12 10:51:36;;;;;;;4.32;1.67;;;;;;;28.85;40.78;97127.31;4986299;28;20053;-63
2022/06/12 10:54:11;;;;;;;3.17;1.90;;;;;;;28.22;44.58;97116.63;4981867;28;20038;-61
2022/06/12 10:56:48;;;;;;;5.65;2.45;;;;;;;28.28;45.31;97119.56;4977131;28;20393;-64
2022/06/12 10:59:23;;;;;;;2.80;1.70;;;;;;;28.44;45.30;97114.81;4990688;28;20034;-64
2022/06/12 11:01:57;;;;;;;3.58;2.40;;;;;;;28.61;44.54;97116.00;5003229;28;20448;-63
2022/06/12 11:05:01;;;;;;;3.92;1.98;;;;;;;28.08;46.90;97113.72;4978777;28;20547;-63
2022/06/12 11:07:42;;;;;;;4.80;2.30;;;;;;;28.32;45.96;97106.09;4977494;28;20043;-64
2022/06/12 11:10:38;;;;;;;4.28;1.80;;;;;;;28.11;42.07;97101.50;4977703;28;20046;-63
2022/06/12 11:13:10;;;;;;;4.20;2.08;;;;;;;28.36;42.56;97097.47;4980115;28;20057;-63
2022/06/12 11:15:44;;;;;;;2.25;1.73;;;;;;;28.48;42.72;97098.53;4982427;28;20377;-64
2022/06/12 11:18:48;;;;;;;3.13;1.70;;;;;;;28.46;43.63;97095.41;4978210;28;20042;-63
2022/06/12 11:25:08;;;;;;;4.45;1.55;;;;;;;28.14;44.39;97087.25;4982994;28;20037;-62
2022/06/12 11:27:44;;;;;;;4.10;2.00;;;;;;;28.11;44.99;97084.59;4987481;28;20050;-63
2022/06/12 11:30:21;;;;;;;4.45;1.50;;;;;;;27.81;44.51;97082.34;4979512;28;20546;-63
2022/06/12 11:32:54;;;;;;;4.60;1.80;;;;;;;26.97;43.36;97085.69;4985742;28;20041;-65
2022/06/12 11:35:26;;;;;;;4.90;1.30;;;;;;;27.48;43.38;97085.06;4986322;28;20053;-63
2022/06/12 11:38:29;;;;;;;2.60;1.67;;;;;;;27.90;41.89;97075.13;4984098;28;20045;-64
2022/06/12 11:41:26;;;;;;;2.92;1.52;;;;;;;28.03;41.22;97061.66;5006330;28;20038;-66
2022/06/12 11:44:10;;;;;;;3.28;1.60;;;;;;;27.98;41.93;97059.47;4975889;28;20488;-66
2022/06/12 11:47:01;;;;;;;2.15;1.40;;;;;;;28.04;39.57;97060.41;4982657;28;20135;-66
2022/06/12 11:49:36;;;;;;;3.50;1.30;;;;;;;28.03;39.62;97067.28;4988939;28;20053;-66
2022/06/12 11:52:10;;;;;;;3.30;1.67;;;;;;;28.32;39.08;97055.41;4983728;28;20057;-66
2022/06/12 11:55:07;;;;;;;2.28;1.60;;;;;;;28.39;39.53;97054.28;5005654;28;20153;-66
2022/06/12 11:57:55;;;;;;;4.35;1.50;;;;;;;28.71;37.78;97057.56;4963611;28;20049;-66
2022/06/12 12:00:53;;;;;;;2.57;1.50;;;;;;;28.20;38.50;97045.16;4959213;28;20035;-66
2022/06/12 12:03:40;;;;;;;3.08;1.50;;;;;;;28.22;38.93;97042.66;4982866;28;20061;-65
2022/06/12 12:06:17;;;;;;;3.22;1.65;;;;;;;28.29;39.48;97036.66;4976224;28;20392;-66
2022/06/12 12:08:42;;;;;;;3.20;1.40;;;;;;;28.12;39.84;97036.25;4977244;28;20042;-66
2022/06/12 12:11:18;;;;;;;4.53;1.67;;;;;;;28.26;38.88;97034.78;4978618;28;20050;-65
2022/06/12 12:13:49;;;;;;;3.20;1.30;;;;;;;28.66;39.83;97036.44;4983523;28;20293;-64
2022/06/12 12:16:21;;;;;;;3.17;1.30;;;;;;;28.92;36.22;97036.72;4977821;28;20035;-66
2022/06/12 12:18:53;;;;;;;3.25;1.23;;;;;;;28.83;36.25;97033.19;4991182;28;20133;-64